createdAt,value
2023-02-24T00:00:38.058Z,98027.00
2023-02-24T00:03:25.854Z,98027.00
2023-02-24T00:06:13.384Z,98018.00
2023-02-24T00:09:01.474Z,98022.00
2023-02-24T00:12:09.179Z,98016.00
2023-02-24T00:14:57.090Z,98021.00
2023-02-24T00:17:45.812Z,98014.00
2023-02-24T00:20:34.422Z,98011.00
2023-02-24T00:23:23.868Z,98023.00
2023-02-24T00:26:14.891Z,98012.00
2023-02-24T00:29:10.124Z,98012.00
2023-02-24T00:32:00.639Z,98011.00
2023-02-24T00:34:49.252Z,98011.00
2023-02-24T00:37:36.844Z,98008.00
2023-02-24T00:40:24.550Z,98007.00
2023-02-24T00:43:15.584Z,98011.00
2023-02-24T00:46:11.302Z,98006.00
2023-02-24T00:48:59.311Z,98009.00
2023-02-24T00:51:49.949Z,98007.00
2023-02-24T00:54:37.988Z,97988.00
2023-02-24T00:57:25.456Z,97994.00
2023-02-24T01:00:15.327Z,98000.00
2023-02-24T01:03:04.165Z,97993.00
2023-02-24T01:05:52.980Z,97986.00
2023-02-24T01:08:47.662Z,97990.00
2023-02-24T01:11:55.245Z,97978.00
2023-02-24T01:14:48.444Z,97978.00
2023-02-24T01:17:38.127Z,97967.00
2023-02-24T01:20:25.797Z,97976.00
2023-02-24T01:23:13.329Z,97970.00
2023-02-24T01:26:01.174Z,97971.00
2023-02-24T01:28:49.001Z,97961.00
2023-02-24T01:31:42.923Z,97963.00
2023-02-24T01:34:30.909Z,97957.00
2023-02-24T01:37:19.696Z,97953.00
2023-02-24T01:40:12.097Z,97952.00
2023-02-24T01:42:59.906Z,97952.00
2023-02-24T01:45:51.393Z,97947.00
2023-02-24T01:48:39.241Z,97942.00
2023-02-24T01:51:35.520Z,97938.00
2023-02-24T01:54:30.924Z,97942.00
2023-02-24T01:57:23.921Z,97956.00
2023-02-24T02:00:32.091Z,97940.00
2023-02-24T02:03:33.984Z,97942.00
2023-02-24T02:06:21.648Z,97930.00
2023-02-24T02:09:10.372Z,97925.00
2023-02-24T02:11:58.261Z,97926.00
2023-02-24T02:14:53.799Z,97933.00
2023-02-24T02:18:05.536Z,97928.00
2023-02-24T02:21:34.042Z,97935.00
2023-02-24T02:24:35.917Z,97932.00
2023-02-24T02:27:53.490Z,97925.00
2023-02-24T02:31:07.801Z,97924.00
2023-02-24T02:34:13.958Z,97921.00
2023-02-24T02:37:15.015Z,97918.00
2023-02-24T02:40:42.449Z,97916.00
2023-02-24T02:44:08.904Z,97924.00
2023-02-24T02:47:43.565Z,97920.00
2023-02-24T02:50:46.194Z,97930.00
2023-02-24T02:53:51.548Z,97926.00
2023-02-24T02:56:48.856Z,97912.00
2023-02-24T02:59:52.364Z,97910.00
2023-02-24T03:02:47.053Z,97912.00
2023-02-24T03:05:47.189Z,97899.00
2023-02-24T03:08:40.162Z,97895.00
2023-02-24T03:11:28.847Z,97910.00
2023-02-24T03:14:20.596Z,97911.00
2023-02-24T03:17:17.234Z,97920.00
2023-02-24T03:20:47.320Z,97915.00
2023-02-24T03:23:46.349Z,97907.00
2023-02-24T03:26:49.407Z,97900.00
2023-02-24T03:29:56.478Z,97916.00
2023-02-24T03:33:03.160Z,97912.00
2023-02-24T03:35:54.176Z,97902.00
2023-02-24T03:38:43.757Z,97908.00
2023-02-24T03:41:47.704Z,97912.00
2023-02-24T03:44:35.646Z,97905.00
2023-02-24T03:47:24.003Z,97904.00
2023-02-24T03:50:27.077Z,97898.00
2023-02-24T03:53:54.850Z,97895.00
2023-02-24T03:56:58.869Z,97891.00
2023-02-24T04:00:16.954Z,97884.00
2023-02-24T04:03:11.609Z,97886.00
2023-02-24T04:06:14.397Z,97879.00
2023-02-24T04:09:33.392Z,97888.00
2023-02-24T04:12:43.070Z,97880.00
2023-02-24T04:15:43.885Z,97878.00
2023-02-24T04:18:33.389Z,97868.00
2023-02-24T04:21:23.415Z,97872.00
2023-02-24T04:24:16.193Z,97875.00
2023-02-24T04:27:09.070Z,97873.00
2023-02-24T04:30:04.960Z,97863.00
2023-02-24T04:32:52.771Z,97857.00
2023-02-24T04:35:40.822Z,97858.00
2023-02-24T04:38:28.342Z,97857.00
2023-02-24T04:41:23.568Z,97859.00
2023-02-24T04:44:11.367Z,97853.00
2023-02-24T04:47:00.834Z,97847.00
2023-02-24T04:49:48.367Z,97838.00
2023-02-24T04:52:36.016Z,97841.00
2023-02-24T04:55:29.231Z,97835.00
2023-02-24T04:58:22.320Z,97835.00
2023-02-24T05:01:11.739Z,97823.00
2023-02-24T05:04:00.399Z,97831.00
2023-02-24T05:06:48.121Z,97826.00
2023-02-24T05:09:35.976Z,97827.00
2023-02-24T05:12:23.678Z,97825.00
2023-02-24T05:15:12.715Z,97814.00
2023-02-24T05:18:07.986Z,97814.00
2023-02-24T05:21:16.687Z,97814.00
2023-02-24T05:24:07.466Z,97817.00
2023-02-24T05:26:59.524Z,97820.00
2023-02-24T05:29:47.483Z,97827.00
2023-02-24T05:32:35.816Z,97816.00
2023-02-24T05:35:23.646Z,97813.00
2023-02-24T05:38:11.335Z,97794.00
2023-02-24T05:41:17.043Z,97783.00
2023-02-24T05:44:09.400Z,97790.00
2023-02-24T05:47:00.939Z,97773.00
2023-02-24T05:49:52.057Z,97789.00
2023-02-24T05:52:39.721Z,97794.00
2023-02-24T05:55:27.500Z,97791.00
2023-02-24T05:58:16.229Z,97790.00
2023-02-24T06:01:16.391Z,97784.00
2023-02-24T06:04:09.784Z,97789.00
2023-02-24T06:06:58.298Z,97779.00
2023-02-24T06:09:54.058Z,97789.00
2023-02-24T06:12:45.647Z,97789.00
2023-02-24T06:15:34.116Z,97786.00
2023-02-24T06:18:21.784Z,97789.00
2023-02-24T06:21:12.821Z,97792.00
2023-02-24T06:24:00.986Z,97792.00
2023-02-24T06:26:50.306Z,97784.00
2023-02-24T06:29:38.759Z,97771.00
2023-02-24T06:32:27.288Z,97773.00
2023-02-24T06:35:16.047Z,97776.00
2023-02-24T06:38:04.692Z,97781.00
2023-02-24T06:40:52.782Z,97790.00
2023-02-24T06:43:44.206Z,97800.00
2023-02-24T06:46:32.501Z,97798.00
2023-02-24T06:49:20.206Z,97799.00
2023-02-24T06:52:08.842Z,97797.00
2023-02-24T06:54:56.348Z,97797.00
2023-02-24T06:57:44.070Z,97782.00
2023-02-24T07:00:41.222Z,97785.00
2023-02-24T07:03:41.193Z,97783.00
2023-02-24T07:06:31.786Z,97793.00
2023-02-24T07:09:28.255Z,97791.00
2023-02-24T07:12:21.275Z,97793.00
2023-02-24T07:15:10.020Z,97791.00
2023-02-24T07:17:58.386Z,97788.00
2023-02-24T07:20:47.116Z,97782.00
2023-02-24T07:23:35.846Z,97778.00
2023-02-24T07:26:30.477Z,97771.00
2023-02-24T07:29:18.765Z,97772.00
2023-02-24T07:32:09.557Z,97769.00
2023-02-24T07:34:57.203Z,97768.00
2023-02-24T07:37:44.843Z,97759.00
2023-02-24T07:40:34.773Z,97766.00
2023-02-24T07:43:22.344Z,97765.00
2023-02-24T07:46:16.983Z,97758.00
2023-02-24T07:49:05.176Z,97758.00
2023-02-24T07:51:57.805Z,97751.00
2023-02-24T07:54:45.727Z,97749.00
2023-02-24T07:57:33.651Z,97739.00
2023-02-24T08:00:28.388Z,97741.00
2023-02-24T08:03:16.275Z,97742.00
2023-02-24T08:06:15.714Z,97740.00
2023-02-24T08:09:20.718Z,97742.00
2023-02-24T08:12:09.081Z,97731.00
2023-02-24T08:15:00.378Z,97730.00
2023-02-24T08:17:48.025Z,97719.00
2023-02-24T08:21:04.784Z,97718.00
2023-02-24T08:23:53.269Z,97716.00
2023-02-24T08:26:45.004Z,97714.00
2023-02-24T08:29:58.382Z,97703.00
2023-02-24T08:32:47.144Z,97704.00
2023-02-24T08:35:45.421Z,97703.00
2023-02-24T08:38:40.173Z,97696.00
2023-02-24T08:41:45.047Z,97690.00
2023-02-24T08:44:35.194Z,97686.00
2023-02-24T08:47:31.084Z,97691.00
2023-02-24T08:50:21.926Z,97680.00
2023-02-24T08:53:10.783Z,97681.00
2023-02-24T08:56:09.635Z,97678.00
2023-02-24T08:59:05.833Z,97679.00
2023-02-24T09:02:13.553Z,97681.00
2023-02-24T09:05:07.650Z,97674.00
2023-02-24T09:07:56.376Z,97664.00
2023-02-24T09:10:46.537Z,97676.00
2023-02-24T09:13:51.824Z,97669.00
2023-02-24T09:16:52.535Z,97662.00
2023-02-24T09:19:46.457Z,97671.00
2023-02-24T09:22:53.962Z,97668.00
2023-02-24T09:25:41.708Z,97656.00
2023-02-24T09:28:33.005Z,97664.00
2023-02-24T09:31:40.884Z,97653.00
2023-02-24T09:34:30.254Z,97656.00
2023-02-24T09:37:26.754Z,97659.00
2023-02-24T09:40:20.640Z,97659.00
2023-02-24T09:43:20.331Z,97655.00
2023-02-24T09:46:15.181Z,97657.00
2023-02-24T09:49:18.545Z,97661.00
2023-02-24T09:52:19.808Z,97654.00
2023-02-24T09:55:36.202Z,97652.00
2023-02-24T09:58:53.398Z,97643.00
2023-02-24T10:02:19.213Z,97644.00
2023-02-24T10:05:48.482Z,97644.00
2023-02-24T10:08:44.874Z,97647.00
2023-02-24T10:11:35.244Z,97644.00
2023-02-24T10:14:42.653Z,97629.00
2023-02-24T10:17:40.532Z,97619.00
2023-02-24T10:20:45.018Z,97629.00
2023-02-24T10:24:14.648Z,97629.00
2023-02-24T10:27:24.217Z,97621.00
2023-02-24T10:30:28.183Z,97616.00
2023-02-24T10:33:30.856Z,97611.00
2023-02-24T10:36:35.628Z,97604.00
2023-02-24T10:39:25.938Z,97602.00
2023-02-24T10:42:26.089Z,97597.00
2023-02-24T10:45:23.956Z,97592.00
2023-02-24T10:48:41.970Z,97591.00
2023-02-24T10:51:38.517Z,97585.00
2023-02-24T10:54:45.178Z,97573.00
2023-02-24T10:57:47.492Z,97571.00
2023-02-24T11:01:22.785Z,97571.00
2023-02-24T11:04:44.273Z,97555.00
2023-02-24T11:07:54.936Z,97553.00
2023-02-24T11:10:58.767Z,97548.00
2023-02-24T11:14:10.482Z,97540.00
2023-02-24T11:17:17.639Z,97536.00
2023-02-24T11:20:22.935Z,97537.00
2023-02-24T11:23:24.711Z,97537.00
2023-02-24T11:26:38.709Z,97532.00
2023-02-24T11:30:00.482Z,97512.00
2023-02-24T11:33:11.096Z,97500.00
2023-02-24T11:36:25.299Z,97500.00
2023-02-24T11:39:38.683Z,97494.00
2023-02-24T11:42:50.146Z,97483.00
2023-02-24T11:45:52.640Z,97486.00
2023-02-24T11:48:57.539Z,97478.00
2023-02-24T11:51:46.216Z,97470.00
2023-02-24T11:54:46.040Z,97465.00
2023-02-24T11:57:45.813Z,97458.00
2023-02-24T12:00:39.170Z,97452.00
2023-02-24T12:03:50.675Z,97454.00
2023-02-24T12:07:02.262Z,97451.00
2023-02-24T12:10:15.594Z,97448.00
2023-02-24T12:13:30.041Z,97444.00
2023-02-24T12:16:31.537Z,97438.00
2023-02-24T12:20:05.930Z,97439.00
2023-02-24T12:23:23.586Z,97435.00
2023-02-24T12:26:24.048Z,97428.00
2023-02-24T12:29:54.678Z,97423.00
2023-02-24T12:33:46.570Z,97410.00
2023-02-24T12:36:52.268Z,97396.00
2023-02-24T12:39:57.536Z,97390.00
2023-02-24T12:43:28.291Z,97393.00
2023-02-24T12:46:38.302Z,97399.00
2023-02-24T12:49:56.693Z,97397.00
2023-02-24T12:53:25.227Z,97387.00
2023-02-24T12:57:19.405Z,97378.00
2023-02-24T13:00:23.256Z,97383.00
2023-02-24T13:03:42.257Z,97379.00
2023-02-24T13:06:54.350Z,97371.00
2023-02-24T13:10:20.834Z,97361.00
2023-02-24T13:13:22.285Z,97352.00
2023-02-24T13:16:12.329Z,97340.00
2023-02-24T13:19:25.487Z,97341.00
2023-02-24T13:22:13.014Z,97328.00
2023-02-24T13:25:19.678Z,97336.00
2023-02-24T13:28:26.417Z,97329.00
2023-02-24T13:31:14.590Z,97322.00
2023-02-24T13:34:34.209Z,97323.00
2023-02-24T13:37:38.223Z,97307.00
2023-02-24T13:40:27.502Z,97317.00
2023-02-24T13:43:27.724Z,97309.00
2023-02-24T13:46:19.671Z,97304.00
2023-02-24T13:49:58.923Z,97297.00
2023-02-24T13:53:06.927Z,97296.00
2023-02-24T13:56:09.975Z,97295.00
2023-02-24T13:59:18.451Z,97282.00
2023-02-24T14:02:23.093Z,97279.00
2023-02-24T14:05:25.225Z,97278.00
2023-02-24T14:08:51.148Z,97273.00
2023-02-24T14:11:39.089Z,97269.00
2023-02-24T14:14:28.540Z,97267.00
2023-02-24T14:17:37.816Z,97266.00
2023-02-24T14:20:27.724Z,97257.00
2023-02-24T14:23:27.156Z,97249.00
2023-02-24T14:26:18.697Z,97240.00
2023-02-24T14:29:10.558Z,97231.00
2023-02-24T14:31:59.551Z,97228.00
2023-02-24T14:34:48.463Z,97235.00
2023-02-24T14:37:36.611Z,97227.00
2023-02-24T14:40:25.820Z,97219.00
2023-02-24T14:43:15.729Z,97220.00
2023-02-24T14:46:06.726Z,97220.00
2023-02-24T14:48:56.374Z,97206.00
2023-02-24T14:51:44.620Z,97206.00
2023-02-24T14:55:08.753Z,97209.00
2023-02-24T14:58:46.969Z,97200.00
2023-02-24T15:01:47.476Z,97192.00
2023-02-24T15:04:40.265Z,97173.00
2023-02-24T15:07:33.725Z,97173.00
2023-02-24T15:10:29.994Z,97178.00
2023-02-24T15:13:57.937Z,97164.00
2023-02-24T15:16:51.896Z,97164.00
2023-02-24T15:19:54.488Z,97170.00
2023-02-24T15:22:50.451Z,97173.00
2023-02-24T15:25:46.602Z,97152.00
2023-02-24T15:28:37.695Z,97154.00
2023-02-24T15:31:26.357Z,97157.00
2023-02-24T15:34:21.201Z,97156.00
2023-02-24T15:37:32.162Z,97154.00
2023-02-24T15:40:25.423Z,97150.00
2023-02-24T15:43:53.326Z,97150.00
2023-02-24T15:46:41.798Z,97152.00
2023-02-24T15:49:29.639Z,97151.00
2023-02-24T15:52:25.969Z,97135.00
2023-02-24T15:55:20.213Z,97143.00
2023-02-24T15:58:18.143Z,97135.00
2023-02-24T16:01:05.949Z,97140.00
2023-02-24T16:03:53.588Z,97142.00
2023-02-24T16:06:54.613Z,97144.00
2023-02-24T16:09:43.960Z,97133.00
2023-02-24T16:12:53.827Z,97135.00
2023-02-24T16:15:44.854Z,97110.00
2023-02-24T16:18:33.329Z,97107.00
2023-02-24T16:21:21.293Z,97109.00
2023-02-24T16:24:09.017Z,97110.00
2023-02-24T16:26:56.599Z,97110.00
2023-02-24T16:29:44.930Z,97115.00
2023-02-24T16:32:32.678Z,97110.00
2023-02-24T16:35:21.361Z,97108.00
2023-02-24T16:38:17.994Z,97108.00
2023-02-24T16:41:06.177Z,97101.00
2023-02-24T16:43:53.903Z,97111.00
2023-02-24T16:46:44.486Z,97106.00
2023-02-24T16:49:33.957Z,97109.00
2023-02-24T16:52:23.554Z,97095.00
2023-02-24T16:55:18.403Z,97093.00
2023-02-24T16:58:06.032Z,97089.00
2023-02-24T17:00:59.844Z,97094.00
2023-02-24T17:03:56.469Z,97095.00
2023-02-24T17:06:44.124Z,97098.00
2023-02-24T17:09:33.450Z,97107.00
2023-02-24T17:12:22.274Z,97085.00
2023-02-24T17:15:24.061Z,97094.00
2023-02-24T17:18:12.229Z,97085.00
2023-02-24T17:21:00.246Z,97087.00
2023-02-24T17:23:48.190Z,97110.00
2023-02-24T17:26:36.379Z,97113.00
2023-02-24T17:29:24.205Z,97105.00
2023-02-24T17:32:11.998Z,97116.00
2023-02-24T17:35:00.355Z,97106.00
2023-02-24T17:37:48.436Z,97101.00
2023-02-24T17:40:38.369Z,97096.00
2023-02-24T17:43:29.805Z,97107.00
2023-02-24T17:46:17.396Z,97097.00
2023-02-24T17:49:05.280Z,97092.00
2023-02-24T17:51:52.933Z,97083.00
2023-02-24T17:54:40.495Z,97080.00
2023-02-24T17:57:29.633Z,97079.00
2023-02-24T18:00:18.096Z,97083.00
2023-02-24T18:03:05.797Z,97086.00
2023-02-24T18:06:06.979Z,97065.00
2023-02-24T18:08:55.430Z,97061.00
2023-02-24T18:11:46.187Z,97043.00
2023-02-24T18:14:33.878Z,97025.00
2023-02-24T18:17:21.526Z,97020.00
2023-02-24T18:20:12.270Z,97024.00
2023-02-24T18:22:59.937Z,97010.00
2023-02-24T18:25:47.554Z,96992.00
2023-02-24T18:28:35.646Z,96990.00
2023-02-24T18:31:26.662Z,97008.00
2023-02-24T18:34:14.365Z,97003.00
2023-02-24T18:37:01.988Z,97010.00
2023-02-24T18:39:51.122Z,97009.00
2023-02-24T18:42:39.027Z,97019.00
2023-02-24T18:45:26.622Z,97011.00
2023-02-24T18:48:14.196Z,97002.00
2023-02-24T18:51:02.565Z,97008.00
2023-02-24T18:53:52.714Z,97015.00
2023-02-24T18:56:41.324Z,96991.00
2023-02-24T18:59:29.666Z,96989.00
2023-02-24T19:02:17.437Z,96978.00
2023-02-24T19:05:05.449Z,96961.00
2023-02-24T19:07:53.068Z,96970.00
2023-02-24T19:10:40.741Z,96974.00
2023-02-24T19:13:28.416Z,96978.00
2023-02-24T19:16:18.248Z,96963.00
2023-02-24T19:19:06.168Z,96963.00
2023-02-24T19:21:54.119Z,96948.00
2023-02-24T19:24:41.835Z,96945.00
2023-02-24T19:27:29.747Z,96951.00
2023-02-24T19:30:17.457Z,96960.00
2023-02-24T19:33:05.294Z,96955.00
2023-02-24T19:35:59.610Z,96957.00
2023-02-24T19:38:47.671Z,96951.00
2023-02-24T19:41:36.868Z,96952.00
2023-02-24T19:44:24.529Z,96945.00
2023-02-24T19:47:12.198Z,96951.00
2023-02-24T19:49:59.743Z,96942.00
2023-02-24T19:52:47.323Z,96949.00
2023-02-24T19:55:34.965Z,96946.00
2023-02-24T19:58:22.785Z,96935.00
2023-02-24T20:01:14.003Z,96925.00
2023-02-24T20:04:04.901Z,96929.00
2023-02-24T20:06:52.723Z,96917.00
2023-02-24T20:09:43.225Z,96913.00
2023-02-24T20:12:30.836Z,96889.00
2023-02-24T20:15:18.590Z,96885.00
2023-02-24T20:18:08.881Z,96893.00
2023-02-24T20:21:00.337Z,96890.00
2023-02-24T20:23:48.870Z,96881.00
2023-02-24T20:26:39.239Z,96889.00
2023-02-24T20:29:29.213Z,96888.00
2023-02-24T20:32:17.075Z,96881.00
2023-02-24T20:35:05.223Z,96877.00
2023-02-24T20:37:53.166Z,96878.00
2023-02-24T20:40:40.816Z,96868.00
2023-02-24T20:43:28.883Z,96860.00
2023-02-24T20:46:27.343Z,96858.00
2023-02-24T20:49:15.201Z,96858.00
2023-02-24T20:52:03.057Z,96837.00
2023-02-24T20:54:50.704Z,96842.00
2023-02-24T20:57:38.328Z,96825.00
2023-02-24T21:00:26.504Z,96828.00
2023-02-24T21:03:14.130Z,96827.00
2023-02-24T21:06:09.965Z,96818.00
2023-02-24T21:08:59.347Z,96819.00
2023-02-24T21:11:47.042Z,96820.00
2023-02-24T21:14:34.844Z,96827.00
2023-02-24T21:17:22.451Z,96831.00
2023-02-24T21:20:11.468Z,96835.00
2023-02-24T21:22:59.022Z,96836.00
2023-02-24T21:25:46.517Z,96838.00
2023-02-24T21:28:35.262Z,96846.00
2023-02-24T21:31:23.182Z,96858.00
2023-02-24T21:34:12.246Z,96875.00
2023-02-24T21:37:01.728Z,96877.00
2023-02-24T21:39:49.464Z,96904.00
2023-02-24T21:42:38.664Z,96909.00
2023-02-24T21:45:27.887Z,96904.00
2023-02-24T21:48:15.587Z,96898.00
2023-02-24T21:51:10.496Z,96894.00
2023-02-24T21:53:58.443Z,96896.00
2023-02-24T21:56:46.620Z,96899.00
2023-02-24T21:59:34.417Z,96907.00
2023-02-24T22:02:22.110Z,96909.00
2023-02-24T22:05:09.886Z,96899.00
2023-02-24T22:07:57.522Z,96904.00
2023-02-24T22:10:58.781Z,96894.00
2023-02-24T22:13:47.779Z,96895.00
2023-02-24T22:16:35.691Z,96896.00
2023-02-24T22:19:24.492Z,96875.00
2023-02-24T22:22:12.151Z,96870.00
2023-02-24T22:24:59.805Z,96868.00
2023-02-24T22:27:47.365Z,96855.00
2023-02-24T22:30:35.297Z,96859.00
2023-02-24T22:33:23.167Z,96860.00
2023-02-24T22:36:17.992Z,96854.00
2023-02-24T22:39:06.791Z,96862.00
2023-02-24T22:41:54.829Z,96867.00
2023-02-24T22:44:42.454Z,96876.00
2023-02-24T22:47:30.101Z,96869.00
2023-02-24T22:50:17.797Z,96859.00
2023-02-24T22:53:06.105Z,96855.00
2023-02-24T22:55:55.144Z,96857.00
2023-02-24T22:58:43.746Z,96839.00
2023-02-24T23:01:36.414Z,96837.00
2023-02-24T23:04:24.503Z,96840.00
2023-02-24T23:07:12.093Z,96827.00
2023-02-24T23:09:59.664Z,96827.00
2023-02-24T23:12:47.507Z,96827.00
2023-02-24T23:15:40.774Z,96837.00
2023-02-24T23:18:28.297Z,96841.00
2023-02-24T23:21:17.275Z,96845.00
2023-02-24T23:24:07.161Z,96833.00
2023-02-24T23:26:57.744Z,96829.00
2023-02-24T23:29:45.345Z,96837.00
2023-02-24T23:32:33.172Z,96842.00
2023-02-24T23:35:20.817Z,96825.00
2023-02-24T23:38:10.357Z,96825.00
2023-02-24T23:40:57.904Z,96822.00
2023-02-24T23:43:45.550Z,96811.00
2023-02-24T23:46:35.059Z,96814.00
2023-02-24T23:49:22.770Z,96810.00
2023-02-24T23:52:13.383Z,96819.00
2023-02-24T23:55:00.985Z,96827.00
2023-02-24T23:57:48.629Z,96827.00
